Time;durP1;ratioP1;P1;durP2;ratioP2;P2;SDS_P1;SDS_P2;PMS_P1;PMS_P2;Temp;Humidity;BMP_temperature;BMP_pressure;BME280_temperature;BME280_humidity;BME280_pressure;Samples;Min_cycle;Max_cycle;Signal;HPM_P1;HPM_P2
2024/02/29 00:00:12;;;;;;;20.60;15.07;;;10.30;56.20;;;;;;5005117;28;20207;-60
2024/02/29 00:02:38;;;;;;;22.00;15.83;;;10.30;56.10;;;;;;5006717;28;20460;-58
2024/02/29 00:05:05;;;;;;;25.80;15.73;;;10.00;56.70;;;;;;5005231;28;20429;-59
2024/02/29 00:07:31;;;;;;;24.33;15.17;;;9.90;58.00;;;;;;5006490;28;20445;-58
2024/02/29 00:09:57;;;;;;;21.07;13.93;;;9.90;58.00;;;;;;5004828;28;20508;-59
2024/02/29 00:12:22;;;;;;;23.17;14.93;;;9.90;58.00;;;;;;5005966;28;20214;-58
2024/02/29 00:14:48;;;;;;;25.17;15.37;;;9.90;58.10;;;;;;5001386;28;20546;-58
2024/02/29 00:17:13;;;;;;;23.07;16.37;;;9.80;58.30;;;;;;5011666;28;20198;-58
2024/02/29 00:19:39;;;;;;;21.33;14.37;;;9.60;58.30;;;;;;5009161;28;20186;-58
2024/02/29 00:22:05;;;;;;;21.77;15.40;;;9.40;59.10;;;;;;5004717;28;20575;-57
2024/02/29 00:24:31;;;;;;;25.23;16.07;;;9.10;59.80;;;;;;5004883;28;20883;-59
2024/02/29 00:26:56;;;;;;;22.57;14.23;;;9.10;60.20;;;;;;5002871;28;20445;-58
2024/02/29 00:29:26;;;;;;;22.87;16.13;;;9.00;60.40;;;;;;5003574;28;20599;-57
2024/02/29 00:31:52;;;;;;;23.20;15.00;;;9.10;60.20;;;;;;5008850;28;20347;-60
2024/02/29 00:34:18;;;;;;;24.17;14.40;;;9.20;59.80;;;;;;5000869;28;20426;-60
2024/02/29 00:36:44;;;;;;;23.63;15.80;;;9.30;59.70;;;;;;5006613;28;20207;-58
2024/02/29 00:39:09;;;;;;;26.77;16.40;;;9.40;59.40;;;;;;5008995;28;20181;-58
2024/02/29 00:41:35;;;;;;;22.93;16.07;;;9.50;58.90;;;;;;5009285;28;20437;-59
2024/02/29 00:44:00;;;;;;;21.63;13.80;;;9.50;58.60;;;;;;5007614;28;20977;-59
2024/02/29 00:46:26;;;;;;;21.70;15.50;;;9.40;59.10;;;;;;5008664;28;20198;-58
2024/02/29 00:48:52;;;;;;;22.40;15.80;;;9.50;59.00;;;;;;4998776;28;20209;-59
2024/02/29 00:51:18;;;;;;;26.17;15.47;;;9.50;58.70;;;;;;5009297;28;20206;-59
2024/02/29 00:53:44;;;;;;;27.93;16.70;;;9.50;58.60;;;;;;5008687;28;20484;-58
2024/02/29 00:56:09;;;;;;;21.30;14.70;;;9.50;58.60;;;;;;5007728;28;20449;-60
2024/02/29 00:58:35;;;;;;;25.97;16.47;;;9.60;58.90;;;;;;5008297;28;20569;-59
2024/02/29 01:01:01;;;;;;;21.37;15.27;;;9.50;58.90;;;;;;5007758;28;20230;-59
2024/02/29 01:03:27;;;;;;;24.80;14.17;;;9.50;58.90;;;;;;5007208;28;20272;-59
2024/02/29 01:05:53;;;;;;;21.90;15.13;;;9.50;58.90;;;;;;5002485;28;20452;-60
2024/02/29 01:08:19;;;;;;;24.70;15.40;;;9.40;59.00;;;;;;5003266;28;20194;-58
2024/02/29 01:10:44;;;;;;;23.70;15.53;;;9.20;59.40;;;;;;5010900;28;20185;-57
2024/02/29 01:13:10;;;;;;;23.57;14.53;;;9.00;59.70;;;;;;5004408;28;20225;-59
2024/02/29 01:15:36;;;;;;;21.53;15.27;;;8.90;60.30;;;;;;5003078;28;20835;-59
2024/02/29 01:18:05;;;;;;;25.43;15.40;;;9.10;60.00;;;;;;5000702;28;20201;-56
2024/02/29 01:20:33;;;;;;;23.20;15.07;;;9.20;59.60;;;;;;5002046;28;20437;-59
2024/02/29 01:22:59;;;;;;;24.33;16.17;;;9.20;59.40;;;;;;5000790;28;20911;-59
2024/02/29 01:25:25;;;;;;;23.73;16.13;;;9.20;59.20;;;;;;5001939;28;20520;-59
2024/02/29 01:27:50;;;;;;;21.90;13.90;;;9.20;59.50;;;;;;5001505;28;20198;-59
2024/02/29 01:30:16;;;;;;;22.63;16.03;;;9.20;59.60;;;;;;5002451;28;20197;-58
2024/02/29 01:32:42;;;;;;;27.50;16.07;;;9.30;59.50;;;;;;5001816;28;20269;-58
2024/02/29 01:35:08;;;;;;;21.53;14.50;;;9.30;59.30;;;;;;5002061;28;20190;-58
2024/02/29 01:37:34;;;;;;;24.77;14.93;;;9.30;59.10;;;;;;5001521;28;20708;-58
2024/02/29 01:40:00;;;;;;;24.63;15.50;;;9.30;59.00;;;;;;5002021;28;20441;-59
2024/02/29 01:42:25;;;;;;;21.40;15.27;;;9.30;59.20;;;;;;5001203;28;20442;-58
2024/02/29 01:44:56;;;;;;;22.83;14.30;;;9.30;59.20;;;;;;5007157;28;20240;-58
2024/02/29 01:47:22;;;;;;;19.87;13.57;;;9.30;59.00;;;;;;5011725;28;20280;-57
2024/02/29 01:49:49;;;;;;;21.43;15.20;;;9.30;58.90;;;;;;5010514;28;20424;-57
2024/02/29 01:52:16;;;;;;;22.57;14.97;;;9.30;59.00;;;;;;5005197;28;20480;-59
2024/02/29 01:54:42;;;;;;;23.50;15.93;;;9.10;59.40;;;;;;5009931;28;20463;-56
2024/02/29 01:57:09;;;;;;;23.93;14.73;;;9.20;59.50;;;;;;5016107;28;20425;-57
2024/02/29 01:59:38;;;;;;;24.67;16.27;;;9.20;59.10;;;;;;5011856;28;20503;-60
2024/02/29 02:02:04;;;;;;;26.13;16.47;;;9.10;59.20;;;;;;5011753;28;20977;-59
2024/02/29 02:04:30;;;;;;;26.23;15.43;;;9.20;59.10;;;;;;5008398;28;21241;-55
2024/02/29 02:06:58;;;;;;;23.10;15.50;;;9.10;58.70;;;;;;5009392;28;20448;-58
2024/02/29 02:09:24;;;;;;;21.27;15.20;;;9.00;59.20;;;;;;5005634;28;20265;-60
2024/02/29 02:11:49;;;;;;;22.40;15.87;;;9.00;59.10;;;;;;5012181;28;21471;-57
2024/02/29 02:14:15;;;;;;;24.83;15.50;;;8.90;58.90;;;;;;5010909;28;20505;-59
2024/02/29 02:16:41;;;;;;;23.97;17.20;;;8.80;59.30;;;;;;5005343;28;20297;-58
2024/02/29 02:19:12;;;;;;;20.50;14.27;;;8.80;59.90;;;;;;5004882;28;20194;-57
2024/02/29 02:21:40;;;;;;;27.73;15.27;;;8.80;59.70;;;;;;5004372;28;20493;-55
2024/02/29 02:24:06;;;;;;;25.80;15.67;;;8.70;59.80;;;;;;5004502;28;20440;-56
2024/02/29 02:26:32;;;;;;;26.07;15.83;;;8.70;59.60;;;;;;5003157;28;20995;-59
2024/02/29 02:28:59;;;;;;;20.67;13.77;;;8.70;59.80;;;;;;5005095;28;20198;-55
2024/02/29 02:31:24;;;;;;;21.00;16.07;;;8.50;59.70;;;;;;5004868;28;20920;-58
2024/02/29 02:33:50;;;;;;;21.33;14.60;;;8.20;61.20;;;;;;5004865;28;20581;-58
2024/02/29 02:36:15;;;;;;;24.13;14.77;;;8.30;61.40;;;;;;5004705;28;20198;-58
2024/02/29 02:38:41;;;;;;;22.20;14.93;;;8.40;60.70;;;;;;5003183;28;20200;-57
2024/02/29 02:41:06;;;;;;;21.80;14.70;;;8.50;60.10;;;;;;5004775;28;20182;-56
2024/02/29 02:43:32;;;;;;;22.07;14.63;;;8.50;60.00;;;;;;5004229;28;20187;-59
2024/02/29 02:45:58;;;;;;;22.60;14.13;;;8.50;59.50;;;;;;5004669;28;20569;-58
2024/02/29 02:48:23;;;;;;;27.83;14.80;;;8.50;60.20;;;;;;5003617;28;20190;-57
2024/02/29 02:50:49;;;;;;;23.60;14.57;;;8.50;59.80;;;;;;5002223;28;20199;-59
2024/02/29 02:53:14;;;;;;;24.87;15.73;;;8.50;59.50;;;;;;5004249;28;20233;-58
2024/02/29 02:55:40;;;;;;;22.17;15.30;;;8.50;59.50;;;;;;5002362;28;20277;-59
2024/02/29 02:58:05;;;;;;;24.53;14.67;;;8.60;59.40;;;;;;5003743;28;20174;-59
2024/02/29 03:00:31;;;;;;;23.90;14.33;;;8.30;59.00;;;;;;5004720;28;20193;-57
2024/02/29 03:02:57;;;;;;;28.80;16.10;;;8.10;59.80;;;;;;5004064;28;20192;-56
2024/02/29 03:05:22;;;;;;;27.53;14.90;;;8.00;60.60;;;;;;5005235;28;20189;-59
2024/02/29 03:07:48;;;;;;;19.63;13.70;;;8.10;60.40;;;;;;5003597;28;20221;-57
2024/02/29 03:10:14;;;;;;;24.90;15.00;;;8.00;60.30;;;;;;5003964;28;20224;-59
2024/02/29 03:12:40;;;;;;;20.00;13.80;;;8.00;60.60;;;;;;5007264;28;20283;-57
2024/02/29 03:15:06;;;;;;;25.97;15.70;;;8.00;60.80;;;;;;5009864;28;20221;-57
2024/02/29 03:17:32;;;;;;;22.30;14.40;;;8.10;60.70;;;;;;5005065;28;20206;-57
2024/02/29 03:19:57;;;;;;;26.27;15.90;;;8.10;60.00;;;;;;5007450;28;20444;-58
2024/02/29 03:22:23;;;;;;;22.13;14.80;;;8.00;60.40;;;;;;5004270;28;20189;-59
2024/02/29 03:24:48;;;;;;;19.47;14.03;;;8.00;60.40;;;;;;5003186;28;20280;-57
2024/02/29 03:27:14;;;;;;;22.77;15.60;;;8.00;60.30;;;;;;5006800;28;20682;-59
2024/02/29 03:29:39;;;;;;;24.73;14.47;;;7.90;60.20;;;;;;5018472;28;20281;-57
2024/02/29 03:32:05;;;;;;;47.27;14.80;;;7.40;61.10;;;;;;5004752;28;20214;-57
2024/02/29 03:34:31;;;;;;;42.97;15.03;;;7.20;62.10;;;;;;5006384;28;20186;-56
2024/02/29 03:36:56;;;;;;;31.53;15.27;;;7.10;63.00;;;;;;5003005;28;20796;-59
2024/02/29 03:39:22;;;;;;;29.33;14.87;;;7.00;63.90;;;;;;5003533;28;20269;-57
2024/02/29 03:41:48;;;;;;;43.20;15.13;;;6.90;64.20;;;;;;5007518;28;20197;-57
2024/02/29 03:44:13;;;;;;;30.03;15.03;;;7.10;64.00;;;;;;5007125;28;20182;-57
2024/02/29 03:46:39;;;;;;;33.13;14.90;;;7.10;63.80;;;;;;5008557;28;20232;-57
2024/02/29 03:49:04;;;;;;;27.10;14.00;;;7.10;63.60;;;;;;5007006;28;20244;-59
2024/02/29 03:51:30;;;;;;;23.57;15.40;;;7.20;63.50;;;;;;5005011;28;20208;-57
2024/02/29 03:53:56;;;;;;;32.50;14.23;;;7.30;63.00;;;;;;5003958;28;20201;-57
2024/02/29 03:56:22;;;;;;;49.10;15.03;;;7.40;62.70;;;;;;5004839;28;20449;-56
2024/02/29 03:58:47;;;;;;;29.93;12.47;;;7.50;62.50;;;;;;5004961;28;20677;-59
2024/02/29 04:01:13;;;;;;;56.83;13.80;;;7.40;62.20;;;;;;5003104;28;20246;-59
2024/02/29 04:03:39;;;;;;;34.87;14.00;;;7.40;62.40;;;;;;5002268;28;20253;-57
2024/02/29 04:06:06;;;;;;;33.30;13.87;;;7.30;62.90;;;;;;5001409;28;20301;-58
2024/02/29 04:08:32;;;;;;;53.47;12.77;;;7.30;63.00;;;;;;5001340;28;20453;-58
2024/02/29 04:10:58;;;;;;;26.73;13.00;;;7.30;62.90;;;;;;5004009;28;20434;-58
2024/02/29 04:13:23;;;;;;;25.03;14.20;;;7.40;62.90;;;;;;5002417;28;20498;-59
2024/02/29 04:15:49;;;;;;;19.40;11.43;;;7.40;62.40;;;;;;5001422;28;20551;-58
2024/02/29 04:18:14;;;;;;;19.83;12.57;;;7.40;62.40;;;;;;5002575;28;20629;-59
2024/02/29 04:20:40;;;;;;;19.00;11.73;;;7.50;62.30;;;;;;5002439;28;20193;-58
2024/02/29 04:23:06;;;;;;;29.30;14.20;;;7.50;62.10;;;;;;5001510;28;20193;-58
2024/02/29 04:25:31;;;;;;;29.80;12.60;;;7.60;61.60;;;;;;5000779;28;20213;-59
2024/02/29 04:27:57;;;;;;;27.40;12.27;;;7.40;61.60;;;;;;5002302;28;20996;-59
2024/02/29 04:30:23;;;;;;;35.90;12.20;;;7.20;62.30;;;;;;5002923;28;20563;-59
2024/02/29 04:32:49;;;;;;;42.60;13.57;;;7.00;63.10;;;;;;5003866;28;20483;-60
2024/02/29 04:35:15;;;;;;;36.40;13.67;;;7.00;63.40;;;;;;5002612;28;20204;-58
2024/02/29 04:37:40;;;;;;;20.07;12.63;;;7.00;63.80;;;;;;5002079;28;20210;-58
2024/02/29 04:40:07;;;;;;;24.50;13.10;;;7.00;63.90;;;;;;5006556;28;20258;-59
2024/02/29 04:42:33;;;;;;;35.03;13.93;;;6.90;63.80;;;;;;5001923;28;20220;-57
2024/02/29 04:44:59;;;;;;;42.10;13.60;;;7.00;63.90;;;;;;5002285;28;20433;-58
2024/02/29 04:47:25;;;;;;;21.40;12.23;;;6.80;63.80;;;;;;5001414;28;20514;-57
2024/02/29 04:49:51;;;;;;;18.47;12.53;;;6.90;64.30;;;;;;5007174;28;20433;-56
2024/02/29 04:52:17;;;;;;;24.40;13.10;;;6.90;64.00;;;;;;5000081;28;20494;-57
2024/02/29 04:54:43;;;;;;;44.87;11.80;;;6.90;63.70;;;;;;5000077;28;20436;-57
2024/02/29 04:57:09;;;;;;;18.37;12.20;;;6.80;63.50;;;;;;5004897;28;20519;-58
2024/02/29 04:59:35;;;;;;;50.87;14.03;;;6.70;63.60;;;;;;5004660;28;20444;-56
2024/02/29 05:02:01;;;;;;;24.63;13.43;;;6.50;63.80;;;;;;4995900;28;20440;-56
2024/02/29 05:04:26;;;;;;;19.53;12.00;;;6.60;64.80;;;;;;5002375;28;20197;-59
2024/02/29 05:06:53;;;;;;;71.63;14.10;;;6.70;64.60;;;;;;5008377;28;20513;-57
2024/02/29 05:09:19;;;;;;;36.87;13.57;;;6.60;63.60;;;;;;5001356;28;20186;-58
2024/02/29 05:11:45;;;;;;;29.87;14.10;;;6.40;65.30;;;;;;5002245;28;20444;-57
2024/02/29 05:14:10;;;;;;;20.90;13.00;;;6.10;65.70;;;;;;5001980;28;20452;-59
2024/02/29 05:16:36;;;;;;;23.63;12.57;;;6.30;66.40;;;;;;5002986;28;20638;-59
2024/02/29 05:19:02;;;;;;;43.23;11.20;;;6.40;65.60;;;;;;5013926;28;20181;-58
2024/02/29 05:21:27;;;;;;;31.37;12.70;;;6.30;65.80;;;;;;5014203;28;20206;-57
2024/02/29 05:23:53;;;;;;;27.43;11.90;;;6.40;66.00;;;;;;5008820;28;20269;-57
2024/02/29 05:26:21;;;;;;;54.63;13.93;;;6.30;66.40;;;;;;5008058;28;20276;-57
2024/02/29 05:28:47;;;;;;;26.43;12.70;;;6.20;65.80;;;;;;5012644;28;20424;-58
2024/02/29 05:31:13;;;;;;;52.70;15.10;;;6.00;65.80;;;;;;5009189;28;20259;-58
2024/02/29 05:33:41;;;;;;;24.37;12.20;;;6.00;67.40;;;;;;5008130;28;20261;-59
2024/02/29 05:36:07;;;;;;;49.33;11.97;;;5.90;67.30;;;;;;5006963;28;20216;-58
2024/02/29 05:38:33;;;;;;;26.47;13.60;;;6.00;67.80;;;;;;5014209;28;20448;-59
2024/02/29 05:41:02;;;;;;;34.73;13.40;;;6.00;67.50;;;;;;5009669;28;20221;-58
2024/02/29 05:43:27;;;;;;;52.60;14.30;;;6.00;68.00;;;;;;5006527;28;20260;-59
2024/02/29 05:45:53;;;;;;;38.43;14.13;;;6.10;67.60;;;;;;5009596;28;20539;-57
2024/02/29 05:48:18;;;;;;;19.60;12.67;;;6.20;67.30;;;;;;5010950;28;20264;-58
2024/02/29 05:50:44;;;;;;;35.03;12.70;;;6.30;67.00;;;;;;5007606;28;20193;-60
2024/02/29 05:53:10;;;;;;;24.17;14.07;;;6.50;66.40;;;;;;5013074;28;20257;-57
2024/02/29 05:55:36;;;;;;;36.40;13.37;;;6.60;65.50;;;;;;5012812;28;20213;-58
2024/02/29 05:58:01;;;;;;;25.60;12.73;;;6.60;65.10;;;;;;5013488;28;20507;-58
2024/02/29 06:00:27;;;;;;;35.47;13.63;;;6.60;65.10;;;;;;5009045;28;20190;-58
2024/02/29 06:02:52;;;;;;;22.17;13.53;;;6.70;64.80;;;;;;5012615;28;20186;-58
2024/02/29 06:05:19;;;;;;;21.13;13.00;;;6.70;64.50;;;;;;5009495;28;20248;-58
2024/02/29 06:07:45;;;;;;;32.43;13.63;;;6.60;64.70;;;;;;5009738;28;20705;-59
2024/02/29 06:10:11;;;;;;;30.53;14.37;;;6.40;64.10;;;;;;5013320;28;20428;-58
2024/02/29 06:12:37;;;;;;;19.70;12.90;;;6.30;65.00;;;;;;5010160;28;20604;-56
2024/02/29 06:15:03;;;;;;;34.43;12.37;;;6.00;65.60;;;;;;5008249;28;20507;-57
2024/02/29 06:17:29;;;;;;;18.33;13.00;;;5.80;67.40;;;;;;5014521;28;20865;-58
2024/02/29 06:19:55;;;;;;;21.03;11.77;;;5.80;68.20;;;;;;5010541;28;20433;-58
2024/02/29 06:22:22;;;;;;;19.57;12.03;;;6.20;70.50;;;;;;5011027;28;20971;-58
2024/02/29 06:24:49;;;;;;;17.93;12.83;;;6.80;70.60;;;;;;5006300;28;20198;-59
2024/02/29 06:27:16;;;;;;;18.10;12.30;;;7.20;68.70;;;;;;5007278;28;20514;-58
2024/02/29 06:29:41;;;;;;;22.57;14.57;;;7.50;67.10;;;;;;5005170;28;20499;-57
2024/02/29 06:32:07;;;;;;;27.27;13.33;;;7.80;67.00;;;;;;5005603;28;20864;-58
2024/02/29 06:34:33;;;;;;;18.60;12.30;;;8.00;65.40;;;;;;5001412;28;20201;-58
2024/02/29 06:36:58;;;;;;;18.80;11.90;;;8.20;64.20;;;;;;5006698;28;20234;-59
2024/02/29 06:39:24;;;;;;;15.47;11.70;;;8.40;62.90;;;;;;5001886;28;20200;-59
2024/02/29 06:41:49;;;;;;;18.50;12.03;;;8.50;62.50;;;;;;5004682;28;20202;-58
2024/02/29 06:44:16;;;;;;;19.40;11.90;;;8.60;61.40;;;;;;5005932;28;20186;-57
2024/02/29 06:46:42;;;;;;;21.47;12.10;;;8.60;60.20;;;;;;5006838;28;20295;-59
2024/02/29 06:49:08;;;;;;;17.43;12.27;;;8.70;60.00;;;;;;5009066;28;20432;-58
2024/02/29 06:51:35;;;;;;;17.80;12.10;;;8.60;60.00;;;;;;5011000;28;20440;-59
2024/02/29 06:54:01;;;;;;;21.50;13.03;;;8.60;59.80;;;;;;5009761;28;20292;-58
2024/02/29 06:56:26;;;;;;;20.90;12.80;;;8.50;60.10;;;;;;5010267;28;21047;-57
2024/02/29 06:58:52;;;;;;;17.40;12.10;;;8.70;60.00;;;;;;5009605;28;20193;-59
2024/02/29 07:01:21;;;;;;;19.00;11.67;;;8.80;59.80;;;;;;5006653;28;20196;-59
2024/02/29 07:03:47;;;;;;;19.00;13.60;;;8.80;59.10;;;;;;5009619;28;20611;-58
2024/02/29 07:06:13;;;;;;;20.90;13.27;;;8.60;58.70;;;;;;5008966;28;20551;-58
2024/02/29 07:08:38;;;;;;;20.33;14.00;;;8.40;59.90;;;;;;5005545;28;21017;-58
2024/02/29 07:11:04;;;;;;;18.90;12.63;;;8.70;60.00;;;;;;5010534;28;20436;-58
2024/02/29 07:13:30;;;;;;;17.33;12.40;;;8.90;59.30;;;;;;5004393;28;20214;-57
2024/02/29 07:15:56;;;;;;;18.87;12.30;;;8.60;59.80;;;;;;5008256;28;20305;-60
2024/02/29 07:18:23;;;;;;;21.93;14.40;;;8.70;60.20;;;;;;5010523;28;20472;-57
2024/02/29 07:20:50;;;;;;;25.30;16.53;;;8.90;59.80;;;;;;5011424;28;20190;-60
2024/02/29 07:23:15;;;;;;;19.50;13.50;;;9.10;59.50;;;;;;5011655;28;20478;-58
2024/02/29 07:25:41;;;;;;;21.47;13.87;;;9.20;58.80;;;;;;5008664;28;20437;-58
2024/02/29 07:28:07;;;;;;;16.93;12.00;;;9.30;58.80;;;;;;5011133;28;20516;-59
2024/02/29 07:30:32;;;;;;;19.40;13.63;;;9.50;58.70;;;;;;5004449;28;20186;-59
2024/02/29 07:33:01;;;;;;;16.40;11.83;;;9.60;58.40;;;;;;5009928;28;20209;-57
2024/02/29 07:35:31;;;;;;;18.57;13.47;;;9.80;58.10;;;;;;5009151;28;20201;-56
2024/02/29 07:37:57;;;;;;;18.27;13.70;;;9.90;57.70;;;;;;5006753;28;20820;-59
2024/02/29 07:40:23;;;;;;;18.17;13.33;;;9.60;56.50;;;;;;5007690;28;20436;-59
2024/02/29 07:42:49;;;;;;;19.13;14.10;;;9.60;58.00;;;;;;5018048;28;20429;-59
2024/02/29 07:45:14;;;;;;;22.13;13.83;;;9.80;58.20;;;;;;5006967;28;20614;-57
2024/02/29 07:47:40;;;;;;;21.13;14.57;;;10.00;56.60;;;;;;5008255;28;20214;-57
2024/02/29 07:50:09;;;;;;;19.33;13.60;;;10.10;56.00;;;;;;5006815;28;20433;-59
2024/02/29 07:52:37;;;;;;;18.00;13.77;;;10.30;56.10;;;;;;5008677;28;20571;-56
2024/02/29 07:55:06;;;;;;;18.90;13.37;;;10.50;55.70;;;;;;5007439;28;20445;-57
2024/02/29 07:57:32;;;;;;;18.07;12.67;;;10.50;55.60;;;;;;5007079;28;20553;-59
2024/02/29 07:59:58;;;;;;;21.60;15.70;;;10.30;55.60;;;;;;5007071;28;20449;-57
2024/02/29 08:02:23;;;;;;;18.23;13.97;;;10.30;55.80;;;;;;5007643;28;20507;-57
2024/02/29 08:04:49;;;;;;;20.60;15.20;;;10.50;56.20;;;;;;5004724;28;20181;-56
2024/02/29 08:07:15;;;;;;;20.57;15.20;;;10.60;55.90;;;;;;5009874;28;20206;-58
2024/02/29 08:09:40;;;;;;;22.10;17.10;;;10.80;55.50;;;;;;5021099;28;20265;-58
2024/02/29 08:12:06;;;;;;;20.23;14.63;;;10.90;55.30;;;;;;5014221;28;20214;-56
2024/02/29 08:14:32;;;;;;;20.20;14.63;;;11.00;54.90;;;;;;5006583;28;20628;-59
2024/02/29 08:16:58;;;;;;;21.47;14.67;;;11.10;54.50;;;;;;5008111;28;20584;-56
2024/02/29 08:19:24;;;;;;;20.87;14.50;;;11.10;54.30;;;;;;5007052;28;20221;-59
2024/02/29 08:21:49;;;;;;;22.13;15.40;;;11.20;54.50;;;;;;5008126;28;20194;-58
2024/02/29 08:24:15;;;;;;;18.37;14.40;;;11.30;54.80;;;;;;5002550;28;20499;-60
2024/02/29 08:26:41;;;;;;;21.00;15.87;;;11.30;54.60;;;;;;5001993;28;20210;-59
2024/02/29 08:29:06;;;;;;;18.73;14.57;;;11.40;54.70;;;;;;5007984;28;20190;-56
2024/02/29 08:31:33;;;;;;;21.80;14.20;;;11.40;55.20;;;;;;5009302;28;20195;-57
2024/02/29 08:33:59;;;;;;;19.87;13.90;;;11.50;55.20;;;;;;5010203;28;20206;-58
2024/02/29 08:36:25;;;;;;;21.57;14.43;;;11.60;55.30;;;;;;5003111;28;20539;-59
2024/02/29 08:38:50;;;;;;;22.90;15.50;;;11.70;56.00;;;;;;5005176;28;20516;-59
2024/02/29 08:41:17;;;;;;;23.87;16.20;;;11.80;55.80;;;;;;5009088;28;20236;-58
2024/02/29 08:43:43;;;;;;;26.40;16.03;;;12.00;55.90;;;;;;5008024;28;20760;-59
2024/02/29 08:46:09;;;;;;;20.60;14.87;;;12.10;56.30;;;;;;5008082;28;20453;-58
2024/02/29 08:48:35;;;;;;;23.30;16.93;;;12.20;56.10;;;;;;5005121;28;20204;-61
2024/02/29 08:51:01;;;;;;;23.10;15.57;;;12.30;55.60;;;;;;5006740;28;20441;-59
2024/02/29 08:53:27;;;;;;;22.40;16.97;;;12.30;55.80;;;;;;5007739;28;20475;-60
2024/02/29 08:55:52;;;;;;;24.83;17.40;;;12.30;55.40;;;;;;5011298;28;20190;-58
2024/02/29 08:58:19;;;;;;;24.37;16.87;;;12.30;55.40;;;;;;5007022;28;20218;-59
2024/02/29 09:00:44;;;;;;;26.30;17.23;;;12.30;56.30;;;;;;5008262;28;20194;-59
2024/02/29 09:03:13;;;;;;;25.60;16.80;;;12.40;56.30;;;;;;5003513;28;20451;-60
2024/02/29 09:05:39;;;;;;;24.20;16.77;;;12.50;56.40;;;;;;5006456;28;20200;-61
2024/02/29 09:08:04;;;;;;;28.27;16.97;;;12.60;56.80;;;;;;5004050;28;20440;-60
2024/02/29 09:10:30;;;;;;;24.50;16.60;;;12.80;56.40;;;;;;5007437;28;20182;-59
2024/02/29 09:12:55;;;;;;;29.13;19.73;;;12.90;56.00;;;;;;5005833;28;20206;-60
2024/02/29 09:15:21;;;;;;;25.50;17.50;;;13.00;55.60;;;;;;5003565;28;20210;-60
2024/02/29 09:17:46;;;;;;;26.43;18.60;;;13.20;55.70;;;;;;5005507;28;20255;-60
2024/02/29 09:20:12;;;;;;;28.73;19.23;;;13.30;55.20;;;;;;5006846;28;20224;-60
2024/02/29 09:22:37;;;;;;;32.20;20.07;;;13.50;54.70;;;;;;5003407;28;20269;-60
2024/02/29 09:25:04;;;;;;;29.90;19.43;;;13.60;54.60;;;;;;5003236;28;20681;-59
2024/02/29 09:27:30;;;;;;;30.07;20.30;;;13.80;54.40;;;;;;5004958;28;20218;-60
2024/02/29 09:29:55;;;;;;;29.37;18.70;;;13.90;54.30;;;;;;5003396;28;20441;-59
2024/02/29 09:32:21;;;;;;;28.40;20.50;;;14.00;54.10;;;;;;5007714;28;20253;-59
2024/02/29 09:34:47;;;;;;;32.50;19.87;;;14.10;53.90;;;;;;5002323;28;20190;-60
2024/02/29 09:37:12;;;;;;;30.80;20.00;;;14.30;53.70;;;;;;5001678;28;20213;-59
2024/02/29 09:39:38;;;;;;;31.20;21.00;;;14.40;53.50;;;;;;5006082;28;20190;-60
2024/02/29 09:42:05;;;;;;;32.00;21.20;;;14.60;53.60;;;;;;5007266;28;20186;-61
2024/02/29 09:44:32;;;;;;;31.87;22.13;;;14.50;54.00;;;;;;5004316;28;20209;-59
2024/02/29 09:46:58;;;;;;;29.10;21.17;;;14.70;53.50;;;;;;5007491;28;20845;-59
2024/02/29 09:49:23;;;;;;;35.60;22.87;;;14.30;53.80;;;;;;5007330;28;20445;-60
2024/02/29 09:51:49;;;;;;;32.80;21.53;;;14.50;54.30;;;;;;5006942;28;20190;-59
2024/02/29 09:54:17;;;;;;;31.10;21.10;;;14.80;53.90;;;;;;5003371;28;20190;-58
2024/02/29 09:56:42;;;;;;;33.37;22.27;;;15.10;52.90;;;;;;5007424;28;20276;-59
2024/02/29 09:59:13;;;;;;;32.70;23.40;;;15.30;52.30;;;;;;5006738;28;20437;-58
2024/02/29 10:01:39;;;;;;;34.63;22.10;;;15.50;52.00;;;;;;5001280;28;20246;-59
2024/02/29 10:04:06;;;;;;;30.50;21.47;;;15.50;51.80;;;;;;5006483;28;20444;-61
2024/02/29 10:06:32;;;;;;;27.90;21.40;;;15.50;51.60;;;;;;5008837;28;20449;-61
2024/02/29 10:08:58;;;;;;;32.47;21.30;;;15.60;51.70;;;;;;5008883;28;20852;-61
2024/02/29 10:11:28;;;;;;;32.67;23.27;;;15.80;51.30;;;;;;5008779;28;20531;-61
2024/02/29 10:13:53;;;;;;;28.73;19.70;;;15.90;51.50;;;;;;5004830;28;20217;-61
2024/02/29 10:16:19;;;;;;;32.13;22.40;;;16.00;51.20;;;;;;5008612;28;21073;-59
2024/02/29 10:18:44;;;;;;;32.43;22.67;;;16.20;50.80;;;;;;5009643;28;20617;-61
2024/02/29 10:21:15;;;;;;;29.23;20.97;;;16.40;50.20;;;;;;5007591;28;20339;-60
2024/02/29 10:23:42;;;;;;;31.70;21.63;;;16.50;50.30;;;;;;5008816;28;20311;-61
2024/02/29 10:26:08;;;;;;;33.23;23.40;;;16.70;50.60;;;;;;5008427;28;20998;-61
2024/02/29 10:28:34;;;;;;;30.60;22.40;;;16.80;49.90;;;;;;5009974;28;20440;-61
2024/02/29 10:31:01;;;;;;;27.50;20.37;;;16.80;50.30;;;;;;5002997;28;20571;-60
2024/02/29 10:33:27;;;;;;;28.13;20.60;;;16.90;49.50;;;;;;5005164;28;20242;-61
2024/02/29 10:35:53;;;;;;;30.90;21.33;;;17.10;48.70;;;;;;5007879;28;20552;-60
2024/02/29 10:38:21;;;;;;;30.03;22.30;;;17.30;48.70;;;;;;5007858;28;20987;-61
2024/02/29 10:40:49;;;;;;;27.50;21.10;;;17.40;48.90;;;;;;5010235;28;20668;-60
2024/02/29 10:43:17;;;;;;;31.60;21.93;;;17.60;48.10;;;;;;5006403;28;20432;-61
2024/02/29 10:45:46;;;;;;;27.10;19.47;;;17.70;46.80;;;;;;5008942;28;20453;-60
2024/02/29 10:48:32;;;;;;;24.13;17.87;;;17.60;46.80;;;;;;5013746;28;20425;-61
2024/02/29 10:51:10;;;;;;;28.27;20.60;;;17.80;47.40;;;;;;5005320;28;20437;-61
2024/02/29 10:53:48;;;;;;;26.10;20.27;;;17.90;46.60;;;;;;5008702;28;20503;-61
2024/02/29 10:56:24;;;;;;;32.67;23.17;;;18.10;46.20;;;;;;5008742;28;20496;-61
2024/02/29 10:59:04;;;;;;;26.83;20.83;;;18.20;46.50;;;;;;5010331;28;20958;-61
2024/02/29 11:01:34;;;;;;;24.70;18.60;;;18.40;46.00;;;;;;5005351;28;20451;-60
2024/02/29 11:04:00;;;;;;;25.40;20.67;;;18.60;45.40;;;;;;5006674;28;20453;-60
2024/02/29 11:06:28;;;;;;;23.50;19.93;;;18.70;45.30;;;;;;5005811;28;20539;-61
2024/02/29 11:08:55;;;;;;;23.70;17.13;;;18.80;44.60;;;;;;5005228;28;20569;-60
2024/02/29 11:11:24;;;;;;;24.60;18.63;;;18.90;44.00;;;;;;5010994;28;20440;-61
2024/02/29 11:14:00;;;;;;;30.27;20.97;;;18.80;44.70;;;;;;5008716;28;20507;-60
2024/02/29 11:16:26;;;;;;;28.97;21.93;;;19.00;44.30;;;;;;5008299;28;20464;-59
2024/02/29 11:19:01;;;;;;;25.10;20.17;;;19.00;43.60;;;;;;5009613;28;20846;-61
2024/02/29 11:21:28;;;;;;;21.60;18.47;;;18.80;45.30;;;;;;5009546;28;20190;-60
2024/02/29 11:24:04;;;;;;;25.80;19.80;;;19.00;44.90;;;;;;5010802;28;20491;-60
2024/02/29 11:26:32;;;;;;;24.60;20.17;;;19.10;44.40;;;;;;5009014;28;20502;-59
2024/02/29 11:28:59;;;;;;;25.60;17.53;;;19.30;44.00;;;;;;5011512;28;20863;-60
2024/02/29 11:31:25;;;;;;;23.90;18.90;;;19.50;44.60;;;;;;5007684;28;20437;-60
2024/02/29 11:33:51;;;;;;;22.40;17.23;;;19.60;43.40;;;;;;5008181;28;20481;-60
2024/02/29 11:36:18;;;;;;;23.43;18.70;;;19.70;43.80;;;;;;5005050;28;20446;-60
2024/02/29 11:38:44;;;;;;;22.23;17.30;;;19.90;42.40;;;;;;5006180;28;20206;-59
2024/02/29 11:41:19;;;;;;;23.10;17.80;;;20.00;42.20;;;;;;5005769;28;20437;-60
2024/02/29 11:43:46;;;;;;;20.40;17.27;;;20.00;41.70;;;;;;5009122;28;20190;-58
2024/02/29 11:46:13;;;;;;;21.60;16.60;;;20.00;41.40;;;;;;5010074;28;20483;-59
2024/02/29 11:48:39;;;;;;;20.10;16.53;;;19.90;41.20;;;;;;5006562;28;20519;-58
2024/02/29 11:51:08;;;;;;;18.90;15.83;;;20.00;41.80;;;;;;5003694;28;20436;-60
2024/02/29 11:53:35;;;;;;;20.80;16.77;;;19.90;41.80;;;;;;5006500;28;20492;-59
2024/02/29 11:56:01;;;;;;;21.57;16.53;;;19.90;41.20;;;;;;5005254;28;20472;-59
2024/02/29 11:58:28;;;;;;;24.30;15.87;;;20.00;41.10;;;;;;5006609;28;20436;-59
2024/02/29 12:00:54;;;;;;;25.37;17.60;;;20.10;41.30;;;;;;5008184;28;20445;-59
2024/02/29 12:03:20;;;;;;;18.27;15.60;;;20.10;41.60;;;;;;5008984;28;20433;-60
2024/02/29 12:05:46;;;;;;;23.27;17.60;;;20.20;41.00;;;;;;5005871;28;20951;-59
2024/02/29 12:08:12;;;;;;;19.30;15.90;;;20.10;41.00;;;;;;5004144;28;20230;-59
2024/02/29 12:10:38;;;;;;;19.97;16.73;;;20.20;41.00;;;;;;5008191;28;20956;-60
2024/02/29 12:13:06;;;;;;;19.73;15.80;;;20.40;41.30;;;;;;5008600;28;20237;-61
2024/02/29 12:15:37;;;;;;;17.97;16.03;;;20.50;40.50;;;;;;5006471;28;20551;-60
2024/02/29 12:18:06;;;;;;;19.43;15.57;;;20.70;40.10;;;;;;5008872;28;20452;-58
2024/02/29 12:20:32;;;;;;;15.73;14.00;;;20.80;39.50;;;;;;5002815;28;20430;-58
2024/02/29 12:23:01;;;;;;;16.77;13.63;;;20.90;39.40;;;;;;5005773;28;20955;-60
2024/02/29 12:25:27;;;;;;;17.60;12.83;;;21.00;38.50;;;;;;5005295;28;20185;-60
2024/02/29 12:27:53;;;;;;;17.73;14.20;;;20.90;38.50;;;;;;4997211;28;20528;-60